createdAt,value
2023-01-13T17:35:19.194Z,186.50
2023-01-13T17:37:48.845Z,133.60
2023-01-13T17:40:18.262Z,135.50
2023-01-13T17:42:47.483Z,128.60
2023-01-13T17:45:16.798Z,119.70
2023-01-13T17:47:47.414Z,104.60
2023-01-13T17:50:18.230Z,108.10
2023-01-13T17:52:47.298Z,113.30
2023-01-13T17:55:16.835Z,109.20
2023-01-13T17:57:46.178Z,109.10
2023-01-13T18:00:16.648Z,96.80
2023-01-13T18:02:45.804Z,101.10
2023-01-13T18:05:14.751Z,98.90
2023-01-13T18:07:43.770Z,96.70
2023-01-13T18:10:12.446Z,96.20
2023-01-13T18:12:41.436Z,102.10
2023-01-13T18:15:13.183Z,104.60
2023-01-13T18:17:42.429Z,105.50
2023-01-13T18:20:37.735Z,109.60
2023-01-13T18:23:35.585Z,113.10
2023-01-13T18:26:37.584Z,113.60
2023-01-13T18:29:07.262Z,111.00
2023-01-13T18:31:38.551Z,102.30
2023-01-13T18:34:08.604Z,100.20
2023-01-13T18:36:39.125Z,95.80
2023-01-13T18:39:12.787Z,84.30
2023-01-13T18:42:00.736Z,98.30
2023-01-13T18:44:29.878Z,91.00
2023-01-13T18:46:59.502Z,89.00
2023-01-13T18:49:28.509Z,100.80
2023-01-13T18:51:57.407Z,95.40
2023-01-13T18:54:26.658Z,97.90
2023-01-13T18:56:56.399Z,83.60
2023-01-13T18:59:26.766Z,84.10
2023-01-13T19:01:55.773Z,90.80
2023-01-13T19:04:25.539Z,86.70
2023-01-13T19:07:00.620Z,82.70
2023-01-13T19:09:29.992Z,91.50
2023-01-13T19:12:01.343Z,90.50
2023-01-13T19:17:14.206Z,84.00
2023-01-13T19:19:44.856Z,88.00
2023-01-13T19:22:17.556Z,85.50
2023-01-13T19:24:46.845Z,76.40
2023-01-13T19:27:17.852Z,84.00
2023-01-13T19:29:52.318Z,79.40
2023-01-13T19:32:22.620Z,75.50
2023-01-13T19:34:51.841Z,92.40
2023-01-13T19:37:20.882Z,85.30
2023-01-13T19:39:49.678Z,86.80
2023-01-13T19:42:36.649Z,77.70
2023-01-13T19:45:25.557Z,85.70
2023-01-13T19:47:58.437Z,85.10
2023-01-13T19:50:27.520Z,76.40
2023-01-13T19:52:56.344Z,81.40
2023-01-13T19:55:24.976Z,83.60
2023-01-13T19:57:53.984Z,77.00
2023-01-13T20:00:23.959Z,73.10
2023-01-13T20:02:53.607Z,77.80
2023-01-13T20:05:25.972Z,71.10
2023-01-13T20:07:55.071Z,77.30
2023-01-13T20:10:25.798Z,71.90
2023-01-13T20:12:54.500Z,80.30
2023-01-13T20:15:24.424Z,73.90
2023-01-13T20:17:53.449Z,68.30
2023-01-13T20:20:22.485Z,64.00
2023-01-13T20:22:51.464Z,71.70
2023-01-13T20:25:20.486Z,78.00
2023-01-13T20:27:49.280Z,63.30
2023-01-13T20:30:18.266Z,64.10
2023-01-13T20:32:47.157Z,68.50
2023-01-13T20:35:16.321Z,71.10
2023-01-13T20:37:45.154Z,66.80
2023-01-13T20:40:16.404Z,64.80
2023-01-13T20:42:45.442Z,74.10
2023-01-13T20:45:20.844Z,65.00
2023-01-13T20:47:50.724Z,93.80
2023-01-13T20:50:20.134Z,90.30
2023-01-13T20:52:49.057Z,97.90
2023-01-13T20:55:18.135Z,92.30
2023-01-13T20:57:49.352Z,89.90
2023-01-13T21:00:19.235Z,96.60
2023-01-13T21:02:48.561Z,96.00
2023-01-13T21:05:17.886Z,86.70
2023-01-13T21:07:47.013Z,82.60
2023-01-13T21:10:16.386Z,79.90
2023-01-13T21:13:03.995Z,92.80
2023-01-13T21:15:33.217Z,90.30
2023-01-13T21:18:21.897Z,86.30
2023-01-13T21:21:11.901Z,90.80
2023-01-13T21:23:42.988Z,85.00
2023-01-13T21:26:13.809Z,89.50
2023-01-13T21:28:43.376Z,76.40
2023-01-13T21:31:13.633Z,87.70
2023-01-13T21:33:42.632Z,85.40
2023-01-13T21:36:16.132Z,82.70
2023-01-13T21:38:45.097Z,79.80
2023-01-13T21:41:15.469Z,73.30
2023-01-13T21:44:03.118Z,80.00
2023-01-13T21:46:50.871Z,74.30
2023-01-13T21:49:19.742Z,77.70
2023-01-13T21:51:48.697Z,64.00
2023-01-13T21:54:17.486Z,68.20
2023-01-13T21:56:47.958Z,66.90
2023-01-13T21:59:17.036Z,75.60
2023-01-13T22:02:10.438Z,62.60
2023-01-13T22:04:35.733Z,64.80
2023-01-13T22:07:06.794Z,64.60
2023-01-13T22:09:36.696Z,60.80
2023-01-13T22:12:06.135Z,64.00
2023-01-13T22:14:36.935Z,59.80
2023-01-13T22:17:06.112Z,63.20
2023-01-13T22:19:39.434Z,57.70
2023-01-13T22:22:14.408Z,54.80
2023-01-13T22:24:43.985Z,55.50
2023-01-13T22:27:31.236Z,51.40
2023-01-13T22:30:00.504Z,47.80
2023-01-13T22:32:29.629Z,46.90
2023-01-13T22:34:58.406Z,48.40
2023-01-13T22:37:27.193Z,44.30
2023-01-13T22:39:56.284Z,47.80
2023-01-13T22:42:25.193Z,51.10
2023-01-13T22:44:53.956Z,46.80
2023-01-13T22:47:22.648Z,51.80
2023-01-13T22:49:52.010Z,46.90
2023-01-13T22:52:22.597Z,52.60
2023-01-13T22:54:51.493Z,51.90
2023-01-13T22:57:21.862Z,57.60
2023-01-13T22:59:52.654Z,54.30
2023-01-13T23:02:21.618Z,53.90
2023-01-13T23:04:50.671Z,52.10
2023-01-13T23:07:19.662Z,48.50
2023-01-13T23:09:48.725Z,51.10
2023-01-13T23:12:17.463Z,49.10
2023-01-13T23:14:46.164Z,48.70
2023-01-13T23:17:15.227Z,51.40
2023-01-13T23:19:44.071Z,52.60
2023-01-13T23:22:14.168Z,53.60
2023-01-13T23:24:43.171Z,55.40
2023-01-13T23:27:12.140Z,60.30
2023-01-13T23:29:41.230Z,49.20
2023-01-13T23:32:10.141Z,53.40
2023-01-13T23:34:39.180Z,49.20
2023-01-13T23:37:08.248Z,52.60
2023-01-13T23:39:37.072Z,53.60
2023-01-13T23:42:06.203Z,53.20
2023-01-13T23:44:35.249Z,51.80
2023-01-13T23:47:04.151Z,51.40
2023-01-13T23:49:33.079Z,50.10
2023-01-13T23:52:01.963Z,53.40
2023-01-13T23:54:30.807Z,53.50
2023-01-13T23:57:00.849Z,53.90
2023-01-13T23:59:29.641Z,54.50
